createdAt,value
2019-04-07T00:00:09.507Z,24.07
2019-04-07T00:02:38.581Z,22.17
2019-04-07T00:05:13.624Z,19.97
2019-04-07T00:07:38.327Z,20.07
2019-04-07T00:10:10.152Z,18.80
2019-04-07T00:12:38.937Z,18.73
2019-04-07T00:15:08.198Z,16.47
2019-04-07T00:17:37.608Z,17.00
2019-04-07T00:20:07.321Z,16.97
2019-04-07T00:22:36.758Z,18.30
2019-04-07T00:25:06.078Z,16.93
2019-04-07T00:27:34.789Z,18.13
2019-04-07T00:30:04.082Z,17.27
2019-04-07T00:32:32.825Z,18.07
2019-04-07T00:35:01.595Z,17.07
2019-04-07T00:37:31.038Z,17.17
2019-04-07T00:39:59.938Z,17.17
2019-04-07T00:42:29.183Z,20.23
2019-04-07T00:44:58.636Z,17.80
2019-04-07T00:47:27.529Z,18.47
2019-04-07T00:49:57.602Z,17.23
2019-04-07T00:52:26.439Z,18.37
2019-04-07T00:54:55.564Z,17.00
2019-04-07T00:57:25.360Z,16.77
2019-04-07T00:59:54.341Z,15.97
2019-04-07T01:02:23.254Z,17.33
2019-04-07T01:04:51.987Z,18.50
2019-04-07T01:07:20.802Z,21.20
2019-04-07T01:09:49.536Z,20.90
2019-04-07T01:12:18.303Z,20.40
2019-04-07T01:14:47.064Z,20.13
2019-04-07T01:17:16.414Z,26.17
2019-04-07T01:19:45.466Z,30.10
2019-04-07T01:22:14.487Z,32.40
2019-04-07T01:24:43.255Z,30.00
2019-04-07T01:27:12.531Z,23.80
2019-04-07T01:29:41.898Z,20.73
2019-04-07T01:32:11.282Z,20.80
2019-04-07T01:34:40.441Z,19.83
2019-04-07T01:37:09.788Z,19.47
2019-04-07T01:39:39.439Z,20.37
2019-04-07T01:42:10.096Z,20.43
2019-04-07T01:44:40.931Z,20.00
2019-04-07T01:47:20.964Z,20.13
2019-04-07T01:49:55.636Z,22.27
2019-04-07T01:52:28.553Z,19.63
2019-04-07T01:54:59.027Z,20.40
2019-04-07T01:57:38.682Z,19.93
2019-04-07T02:00:25.868Z,23.83
2019-04-07T02:02:59.975Z,25.00
2019-04-07T02:05:36.530Z,21.70
2019-04-07T02:08:07.766Z,23.07
2019-04-07T02:10:44.581Z,22.37
2019-04-07T02:13:33.895Z,23.37
2019-04-07T02:16:06.795Z,25.20
2019-04-07T02:18:52.269Z,23.63
2019-04-07T02:21:25.598Z,23.60
2019-04-07T02:24:11.466Z,22.83
2019-04-07T02:26:58.635Z,23.90
2019-04-07T02:29:32.445Z,26.07
2019-04-07T02:32:21.500Z,30.20
2019-04-07T02:35:08.885Z,30.73
2019-04-07T02:37:44.756Z,27.97
2019-04-07T02:40:31.720Z,25.03
2019-04-07T02:43:03.021Z,26.50
2019-04-07T02:45:34.596Z,23.57
2019-04-07T02:48:14.480Z,24.73
2019-04-07T02:50:47.875Z,23.70
2019-04-07T02:53:30.878Z,23.70
2019-04-07T02:56:08.081Z,23.60
2019-04-07T02:58:54.956Z,23.20
2019-04-07T03:01:26.485Z,28.40
2019-04-07T03:03:57.801Z,27.97
2019-04-07T03:06:49.741Z,26.13
2019-04-07T03:09:28.923Z,26.57
2019-04-07T03:12:03.987Z,28.20
2019-04-07T03:14:34.449Z,28.03
2019-04-07T03:17:05.572Z,31.20
2019-04-07T03:19:37.284Z,30.27
2019-04-07T03:22:13.373Z,29.07
2019-04-07T03:24:46.843Z,27.60
2019-04-07T03:27:24.002Z,27.90
2019-04-07T03:29:55.366Z,29.00
2019-04-07T03:32:33.786Z,27.07
2019-04-07T03:35:15.033Z,24.77
2019-04-07T03:37:57.232Z,26.20
2019-04-07T03:40:43.974Z,25.70
2019-04-07T03:43:17.686Z,26.67
2019-04-07T03:45:48.328Z,26.07
2019-04-07T03:48:33.769Z,25.73
2019-04-07T03:51:13.074Z,25.60
2019-04-07T03:53:59.418Z,23.23
2019-04-07T03:56:46.370Z,24.13
2019-04-07T03:59:33.348Z,24.07
2019-04-07T04:02:20.478Z,24.97
2019-04-07T04:04:57.562Z,26.67
2019-04-07T04:07:40.493Z,27.03
2019-04-07T04:10:11.444Z,28.93
2019-04-07T04:12:45.625Z,28.67
2019-04-07T04:15:18.707Z,30.17
2019-04-07T04:17:48.123Z,29.10
2019-04-07T04:20:17.127Z,26.10
2019-04-07T04:22:46.487Z,28.13
2019-04-07T04:25:15.463Z,28.50
2019-04-07T04:27:44.340Z,26.90
2019-04-07T04:30:13.461Z,27.60
2019-04-07T04:32:42.186Z,28.37
2019-04-07T04:35:11.161Z,31.57
2019-04-07T04:37:47.595Z,31.93
2019-04-07T04:40:10.803Z,35.57
2019-04-07T04:42:39.762Z,40.87
2019-04-07T04:45:09.025Z,42.60
2019-04-07T04:47:39.169Z,42.13
2019-04-07T04:50:09.700Z,41.60
2019-04-07T04:52:38.816Z,39.53
2019-04-07T04:55:07.842Z,35.60
2019-04-07T04:57:36.729Z,35.90
2019-04-07T05:00:08.827Z,33.33
2019-04-07T05:02:38.224Z,33.87
2019-04-07T05:05:09.453Z,30.67
2019-04-07T05:07:50.396Z,31.30
2019-04-07T05:10:10.059Z,29.90
2019-04-07T05:12:39.127Z,31.33
2019-04-07T05:15:08.725Z,30.30
2019-04-07T05:17:38.065Z,31.37
2019-04-07T05:20:08.054Z,32.77
2019-04-07T05:22:36.914Z,30.37
2019-04-07T05:25:07.128Z,32.90
2019-04-07T05:27:41.793Z,34.70
2019-04-07T05:30:12.351Z,34.87
2019-04-07T05:32:41.744Z,36.70
2019-04-07T05:35:10.682Z,34.63
2019-04-07T05:37:39.394Z,35.47
2019-04-07T05:40:09.092Z,34.60
2019-04-07T05:42:38.014Z,33.67
2019-04-07T05:45:07.450Z,34.37
2019-04-07T05:47:36.538Z,35.33
2019-04-07T05:50:06.969Z,35.63
2019-04-07T05:52:39.398Z,34.60
2019-04-07T05:55:07.726Z,33.93
2019-04-07T05:57:36.586Z,32.57
2019-04-07T06:00:09.214Z,31.90
2019-04-07T06:02:38.936Z,31.17
2019-04-07T06:05:07.917Z,31.03
2019-04-07T06:07:37.102Z,31.03
2019-04-07T06:10:07.986Z,30.17
2019-04-07T06:12:39.318Z,31.63
2019-04-07T06:15:07.564Z,30.43
2019-04-07T06:17:36.754Z,30.50
2019-04-07T06:20:12.139Z,28.03
2019-04-07T06:22:38.033Z,27.60
2019-04-07T06:25:09.505Z,29.70
2019-04-07T06:27:38.675Z,28.93
2019-04-07T06:30:10.846Z,28.30
2019-04-07T06:32:40.538Z,28.67
2019-04-07T06:35:12.858Z,27.13
2019-04-07T06:37:40.705Z,27.57
2019-04-07T06:40:10.000Z,27.43
2019-04-07T06:42:39.032Z,27.10
2019-04-07T06:45:11.861Z,28.47
2019-04-07T06:47:55.202Z,27.73
2019-04-07T06:50:25.877Z,27.13
2019-04-07T06:53:17.889Z,26.57
2019-04-07T06:56:01.340Z,26.73
2019-04-07T06:58:41.609Z,26.47
2019-04-07T07:01:11.100Z,25.83
2019-04-07T07:03:51.381Z,25.10
2019-04-07T07:06:25.176Z,24.83
2019-04-07T07:09:13.778Z,25.37
2019-04-07T07:11:56.140Z,24.27
2019-04-07T07:14:44.920Z,25.03
2019-04-07T07:17:17.001Z,25.37
2019-04-07T07:19:49.835Z,24.17
2019-04-07T07:22:26.964Z,24.47
2019-04-07T07:24:58.374Z,26.70
2019-04-07T07:27:26.220Z,26.47
2019-04-07T07:29:55.521Z,25.93
2019-04-07T07:32:25.010Z,27.03
2019-04-07T07:34:54.179Z,26.62
2019-04-07T07:37:25.297Z,26.35
2019-04-07T07:39:54.292Z,25.40
2019-04-07T07:42:24.435Z,27.27
2019-04-07T07:44:53.579Z,26.95
2019-04-07T07:47:23.014Z,26.68
2019-04-07T07:49:52.028Z,27.17
2019-04-07T07:52:21.838Z,26.87
2019-04-07T07:54:50.939Z,27.22
2019-04-07T07:57:23.422Z,28.83
2019-04-07T07:59:50.953Z,27.55
2019-04-07T08:02:20.752Z,29.35
2019-04-07T08:04:50.159Z,27.42
2019-04-07T08:07:19.377Z,27.22
2019-04-07T08:09:48.293Z,28.10
2019-04-07T08:12:17.364Z,25.02
2019-04-07T08:14:50.265Z,25.55
2019-04-07T08:17:17.305Z,25.12
2019-04-07T08:19:46.649Z,24.07
2019-04-07T08:22:26.641Z,24.00
2019-04-07T08:24:49.587Z,21.87
2019-04-07T08:27:16.385Z,23.30
2019-04-07T08:29:46.328Z,23.77
2019-04-07T08:32:15.149Z,22.07
2019-04-07T08:34:44.758Z,25.48
2019-04-07T08:37:15.174Z,24.12
2019-04-07T08:39:44.396Z,23.95
2019-04-07T08:42:17.503Z,25.52
2019-04-07T08:44:44.116Z,24.67
2019-04-07T08:47:18.862Z,25.12
2019-04-07T08:49:43.604Z,26.62
2019-04-07T08:52:12.800Z,25.77
2019-04-07T08:54:42.160Z,23.38
2019-04-07T08:57:11.031Z,25.17
2019-04-07T08:59:42.460Z,25.68
2019-04-07T09:02:10.162Z,28.75
2019-04-07T09:04:38.944Z,27.62
2019-04-07T09:07:08.016Z,28.25
2019-04-07T09:09:40.400Z,28.80
2019-04-07T09:12:08.129Z,27.82
2019-04-07T09:14:39.336Z,27.77
2019-04-07T09:17:09.447Z,27.95
2019-04-07T09:19:49.556Z,26.90
2019-04-07T09:22:35.200Z,27.15
2019-04-07T09:25:19.367Z,29.05
2019-04-07T09:27:52.681Z,29.15
2019-04-07T09:30:23.652Z,29.42
2019-04-07T09:32:54.588Z,26.68
2019-04-07T09:35:34.150Z,28.40
2019-04-07T09:38:14.359Z,26.80
2019-04-07T09:40:53.545Z,26.70
2019-04-07T09:43:40.392Z,31.42
2019-04-07T09:46:13.728Z,29.25
2019-04-07T09:49:02.391Z,27.13
2019-04-07T09:51:41.402Z,27.60
2019-04-07T09:54:19.196Z,26.82
2019-04-07T09:56:51.954Z,27.65
2019-04-07T09:59:22.891Z,29.42
2019-04-07T10:01:59.497Z,29.12
2019-04-07T10:04:31.100Z,29.30
2019-04-07T10:07:01.550Z,28.47
2019-04-07T10:09:41.286Z,30.02
2019-04-07T10:12:11.772Z,32.00
2019-04-07T10:14:58.295Z,32.55
2019-04-07T10:17:38.430Z,30.75
2019-04-07T10:20:14.884Z,28.25
2019-04-07T10:23:01.864Z,27.17
2019-04-07T10:25:44.561Z,27.70
2019-04-07T10:28:15.013Z,27.07
2019-04-07T10:30:45.972Z,24.53
2019-04-07T10:33:33.568Z,26.33
2019-04-07T10:36:20.554Z,26.47
2019-04-07T10:38:51.246Z,24.70
2019-04-07T10:41:21.761Z,27.43
2019-04-07T10:43:52.581Z,26.47
2019-04-07T10:46:38.565Z,27.53
2019-04-07T10:49:25.223Z,28.57
2019-04-07T10:52:02.922Z,27.23
2019-04-07T10:54:42.680Z,29.17
2019-04-07T10:57:15.758Z,27.80
2019-04-07T10:59:49.283Z,28.83
2019-04-07T11:02:35.060Z,27.57
2019-04-07T11:05:22.860Z,26.13
2019-04-07T11:08:10.565Z,27.07
2019-04-07T11:10:56.420Z,28.60
2019-04-07T11:13:42.284Z,24.60
2019-04-07T11:16:18.737Z,27.73
2019-04-07T11:19:07.801Z,28.63
2019-04-07T11:21:56.643Z,28.80
2019-04-07T11:24:43.325Z,25.83
2019-04-07T11:27:31.112Z,24.30
2019-04-07T11:30:05.115Z,28.50
2019-04-07T11:32:35.922Z,27.00
2019-04-07T11:35:17.450Z,26.70
2019-04-07T11:37:48.479Z,29.30
2019-04-07T11:40:22.655Z,27.80
2019-04-07T11:42:55.922Z,29.07
2019-04-07T11:45:26.953Z,26.80
2019-04-07T11:47:58.072Z,30.03
2019-04-07T11:50:28.649Z,28.00
2019-04-07T11:53:01.984Z,28.53
2019-04-07T11:55:35.326Z,28.63
2019-04-07T11:58:17.731Z,26.93
2019-04-07T12:00:55.645Z,28.13
2019-04-07T12:03:41.792Z,27.43
2019-04-07T12:06:19.177Z,27.53
2019-04-07T12:09:02.232Z,26.37
2019-04-07T12:11:49.371Z,27.63
2019-04-07T12:14:25.917Z,27.27
2019-04-07T12:16:58.473Z,28.80
2019-04-07T12:19:32.076Z,28.30
2019-04-07T12:22:12.285Z,27.23
2019-04-07T12:24:40.209Z,26.43
2019-04-07T12:27:27.036Z,28.10
2019-04-07T12:30:10.080Z,25.70
2019-04-07T12:32:43.493Z,27.07
2019-04-07T12:35:15.589Z,26.27
2019-04-07T12:37:49.214Z,26.10
2019-04-07T12:40:32.295Z,29.33
2019-04-07T12:43:12.274Z,25.97
2019-04-07T12:45:56.819Z,24.73
2019-04-07T12:48:36.296Z,23.63
2019-04-07T12:51:09.791Z,24.23
2019-04-07T12:53:43.364Z,24.47
2019-04-07T12:56:13.842Z,25.50
2019-04-07T12:58:50.599Z,24.73
2019-04-07T13:01:33.709Z,25.47
2019-04-07T13:04:23.279Z,23.67
2019-04-07T13:07:03.496Z,24.50
2019-04-07T13:09:37.103Z,23.23
2019-04-07T13:12:07.694Z,23.70
2019-04-07T13:14:40.029Z,25.33
2019-04-07T13:17:34.231Z,25.00
2019-04-07T13:20:06.297Z,24.70
2019-04-07T13:22:53.182Z,25.20
2019-04-07T13:25:24.350Z,24.63
2019-04-07T13:28:01.438Z,25.10
2019-04-07T13:30:48.828Z,25.00
2019-04-07T13:33:26.421Z,27.00
2019-04-07T13:36:10.379Z,24.77
2019-04-07T13:38:41.475Z,23.27
2019-04-07T13:41:38.658Z,23.67
2019-04-07T13:44:07.149Z,24.53
2019-04-07T13:46:51.605Z,22.87
2019-04-07T13:49:38.067Z,24.30
2019-04-07T13:52:11.868Z,23.93
2019-04-07T13:54:51.348Z,23.33
2019-04-07T13:57:27.627Z,23.40
2019-04-07T14:00:15.965Z,24.77
2019-04-07T14:02:46.341Z,22.00
2019-04-07T14:05:16.886Z,22.93
2019-04-07T14:08:00.097Z,24.23
2019-04-07T14:10:36.964Z,21.63
2019-04-07T14:13:21.010Z,22.70
2019-04-07T14:16:04.014Z,24.40
2019-04-07T14:18:49.035Z,21.20
2019-04-07T14:21:18.638Z,23.33
2019-04-07T14:24:08.189Z,23.60
2019-04-07T14:26:42.400Z,23.37
2019-04-07T14:29:29.202Z,23.70
2019-04-07T14:32:00.856Z,20.37
2019-04-07T14:34:31.612Z,23.77
2019-04-07T14:37:09.720Z,21.20
2019-04-07T14:39:40.398Z,22.97
2019-04-07T14:42:17.651Z,21.33
2019-04-07T14:44:54.523Z,23.20
2019-04-07T14:47:43.601Z,20.97
2019-04-07T14:50:17.279Z,20.67
2019-04-07T14:52:48.287Z,20.73
2019-04-07T14:55:19.495Z,19.87
2019-04-07T14:57:50.240Z,19.77
2019-04-07T15:00:38.621Z,21.20
2019-04-07T15:03:08.151Z,22.10
2019-04-07T15:05:38.814Z,21.07
2019-04-07T15:08:12.349Z,20.57
2019-04-07T15:10:46.251Z,20.60
2019-04-07T15:13:23.856Z,20.43
2019-04-07T15:15:51.435Z,20.53
2019-04-07T15:18:21.456Z,21.07
2019-04-07T15:20:50.570Z,20.40
2019-04-07T15:23:19.835Z,21.00
2019-04-07T15:25:49.447Z,20.67
2019-04-07T15:28:19.460Z,19.67
2019-04-07T15:30:49.493Z,20.43
2019-04-07T15:33:18.888Z,20.30
2019-04-07T15:35:49.444Z,22.03
2019-04-07T15:38:20.423Z,22.57
2019-04-07T15:40:49.337Z,20.60
2019-04-07T15:43:19.082Z,23.30
2019-04-07T15:45:48.724Z,20.87
2019-04-07T15:48:17.565Z,22.17
2019-04-07T15:50:46.356Z,20.60
2019-04-07T15:53:15.651Z,22.33
2019-04-07T15:55:50.953Z,21.57
2019-04-07T15:58:16.964Z,20.40
2019-04-07T16:00:46.191Z,20.40
2019-04-07T16:03:16.580Z,21.00
2019-04-07T16:05:46.471Z,21.10
2019-04-07T16:08:16.129Z,20.70
2019-04-07T16:10:45.317Z,20.67
2019-04-07T16:13:14.292Z,20.90
2019-04-07T16:15:45.239Z,20.20
2019-04-07T16:18:13.388Z,20.27
2019-04-07T16:20:43.151Z,21.00
2019-04-07T16:23:12.810Z,21.17
2019-04-07T16:25:42.610Z,20.60
2019-04-07T16:28:13.624Z,22.47
2019-04-07T16:30:41.802Z,21.10
2019-04-07T16:33:11.112Z,22.03
2019-04-07T16:35:39.944Z,20.07
2019-04-07T16:38:09.530Z,20.53
2019-04-07T16:40:40.438Z,23.43
2019-04-07T16:43:14.463Z,22.83
2019-04-07T16:45:43.910Z,20.37
2019-04-07T16:48:10.813Z,22.43
2019-04-07T16:50:39.861Z,23.13
2019-04-07T16:53:09.216Z,21.87
2019-04-07T16:55:41.605Z,22.87
2019-04-07T16:58:11.699Z,22.70
2019-04-07T17:00:43.527Z,23.07
2019-04-07T17:03:13.183Z,23.00
2019-04-07T17:05:43.062Z,24.63
2019-04-07T17:08:12.881Z,23.33
2019-04-07T17:10:41.840Z,24.27
2019-04-07T17:13:18.602Z,24.07
2019-04-07T17:15:42.884Z,23.97
2019-04-07T17:18:55.400Z,25.90
2019-04-07T17:21:22.832Z,25.33
2019-04-07T17:23:55.361Z,25.07
2019-04-07T17:26:23.812Z,24.20
2019-04-07T17:28:55.596Z,25.17
2019-04-07T17:31:23.992Z,24.27
2019-04-07T17:33:53.972Z,22.80
2019-04-07T17:36:23.927Z,23.10
2019-04-07T17:38:58.362Z,26.97
2019-04-07T17:41:28.721Z,24.43
2019-04-07T17:44:05.896Z,24.30
2019-04-07T17:46:55.828Z,26.50
2019-04-07T17:49:30.958Z,25.87
2019-04-07T17:52:22.133Z,24.53
2019-04-07T17:58:10.500Z,25.67
2019-04-07T18:00:56.485Z,28.10
2019-04-07T18:03:30.255Z,25.50
2019-04-07T18:06:03.851Z,26.83
2019-04-07T18:08:43.513Z,27.70
2019-04-07T18:11:25.175Z,30.63
2019-04-07T18:14:08.874Z,32.87
2019-04-07T18:16:46.159Z,28.67
2019-04-07T18:19:34.797Z,28.27
2019-04-07T18:22:24.528Z,31.10
2019-04-07T18:24:55.685Z,30.40
2019-04-07T18:27:30.720Z,37.40
2019-04-07T18:30:18.476Z,35.87
2019-04-07T18:33:01.597Z,32.67
2019-04-07T18:35:36.604Z,40.13
2019-04-07T18:38:11.428Z,39.43
2019-04-07T18:41:01.655Z,54.70
2019-04-07T18:43:50.738Z,48.47
2019-04-07T18:46:32.399Z,47.37
2019-04-07T18:49:04.856Z,46.63
2019-04-07T18:51:40.218Z,37.47
2019-04-07T18:54:26.916Z,36.30
2019-04-07T18:57:10.562Z,41.17
2019-04-07T18:59:42.117Z,48.27
2019-04-07T19:02:16.562Z,43.83
2019-04-07T19:05:03.848Z,43.60
2019-04-07T19:07:34.651Z,37.83
2019-04-07T19:10:16.468Z,38.97
2019-04-07T19:12:41.111Z,38.53
2019-04-07T19:15:28.191Z,39.13
2019-04-07T19:18:02.968Z,36.33
2019-04-07T19:20:37.229Z,40.67
2019-04-07T19:23:08.635Z,39.57
2019-04-07T19:25:57.762Z,51.17
2019-04-07T19:28:36.925Z,47.97
2019-04-07T19:31:17.486Z,49.70
2019-04-07T19:33:56.638Z,54.23
2019-04-07T19:36:36.884Z,59.40
2019-04-07T19:39:11.169Z,75.87
2019-04-07T19:41:41.877Z,77.43
2019-04-07T19:44:34.858Z,65.53
2019-04-07T19:46:59.674Z,68.07
2019-04-07T19:49:28.806Z,61.23
2019-04-07T19:52:02.333Z,69.93
2019-04-07T19:54:31.508Z,75.90
2019-04-07T19:57:14.126Z,71.13
2019-04-07T20:00:00.489Z,75.30
2019-04-07T20:02:35.786Z,104.57
2019-04-07T20:05:06.092Z,102.17
2019-04-07T20:07:52.523Z,107.00
2019-04-07T20:10:32.267Z,111.10
2019-04-07T20:13:11.325Z,89.90
2019-04-07T20:15:43.014Z,92.17
2019-04-07T20:18:16.602Z,84.63
2019-04-07T20:21:03.321Z,89.27
2019-04-07T20:23:52.234Z,92.87
2019-04-07T20:26:22.780Z,94.13
2019-04-07T20:29:10.730Z,91.83
2019-04-07T20:31:58.052Z,100.97
2019-04-07T20:34:33.998Z,85.73
2019-04-07T20:37:07.045Z,85.53
2019-04-07T20:39:41.192Z,91.07
2019-04-07T20:42:15.943Z,82.10
2019-04-07T20:45:02.730Z,79.43
2019-04-07T20:47:26.443Z,75.93
2019-04-07T20:50:02.886Z,79.60
2019-04-07T20:52:34.115Z,76.73
2019-04-07T20:55:06.851Z,67.43
2019-04-07T20:57:39.466Z,75.93
2019-04-07T21:00:26.754Z,68.63
2019-04-07T21:03:14.373Z,74.63
2019-04-07T21:05:46.272Z,74.43
2019-04-07T21:08:17.719Z,66.13
2019-04-07T21:10:49.640Z,71.97
2019-04-07T21:13:24.776Z,64.87
2019-04-07T21:15:55.649Z,57.90
2019-04-07T21:18:42.492Z,59.57
2019-04-07T21:21:25.621Z,59.23
2019-04-07T21:24:17.414Z,53.40
2019-04-07T21:26:46.610Z,53.67
2019-04-07T21:29:35.269Z,51.73
2019-04-07T21:32:12.237Z,47.67
2019-04-07T21:34:49.348Z,46.20
2019-04-07T21:37:23.044Z,44.13
2019-04-07T21:40:02.813Z,44.70
2019-04-07T21:45:47.361Z,37.07
2019-04-07T21:48:33.511Z,36.00
2019-04-07T21:51:04.441Z,35.53
2019-04-07T21:53:34.915Z,37.27
2019-04-07T21:56:20.246Z,36.33
2019-04-07T21:59:08.763Z,40.43
2019-04-07T22:01:39.904Z,41.00
2019-04-07T22:04:25.298Z,47.90
2019-04-07T22:07:00.217Z,54.33
2019-04-07T22:09:31.032Z,53.80
2019-04-07T22:12:00.571Z,52.50
2019-04-07T22:14:30.486Z,55.20
2019-04-07T22:17:02.449Z,54.73
2019-04-07T22:19:31.897Z,49.53
2019-04-07T22:22:02.445Z,51.07
2019-04-07T22:24:34.718Z,49.80
2019-04-07T22:27:05.321Z,54.10
2019-04-07T22:29:34.981Z,51.20
2019-04-07T22:32:05.327Z,51.00
2019-04-07T22:34:35.567Z,50.43
2019-04-07T22:37:05.015Z,48.33
2019-04-07T22:39:33.882Z,48.77
2019-04-07T22:42:02.629Z,52.77
2019-04-07T22:44:31.719Z,48.87
2019-04-07T22:47:00.911Z,52.53
2019-04-07T22:49:32.167Z,54.83
2019-04-07T22:52:01.274Z,48.43
2019-04-07T22:54:31.232Z,51.57
2019-04-07T22:57:00.696Z,48.47
2019-04-07T22:59:30.199Z,60.40
2019-04-07T23:01:59.871Z,61.73
2019-04-07T23:04:29.990Z,59.30
2019-04-07T23:06:59.234Z,59.93
2019-04-07T23:09:28.030Z,59.43
2019-04-07T23:11:56.803Z,56.10
2019-04-07T23:14:25.691Z,56.20
2019-04-07T23:16:54.446Z,58.23
2019-04-07T23:19:23.686Z,57.77
2019-04-07T23:21:53.368Z,63.20
2019-04-07T23:24:22.229Z,58.13
2019-04-07T23:26:51.073Z,60.03
2019-04-07T23:29:19.952Z,62.03
2019-04-07T23:31:48.639Z,63.03
2019-04-07T23:34:17.377Z,60.67
2019-04-07T23:36:46.099Z,59.80
2019-04-07T23:39:15.254Z,57.87
2019-04-07T23:41:44.210Z,47.73
2019-04-07T23:44:13.580Z,50.13
2019-04-07T23:46:42.334Z,55.10
2019-04-07T23:49:11.819Z,59.00
2019-04-07T23:51:41.406Z,59.77
2019-04-07T23:54:11.835Z,61.47
2019-04-07T23:56:42.203Z,59.13
2019-04-07T23:59:11.639Z,57.70
